Home > Products > Valid Products > TAF

000
FTUS46 KLOX 270800 AAA
TAFLAX
TAF AMD
KLAX 270855Z 2709/2812 04005KT P6SM SKC WS015/07025KT
     FM271700 VRB03KT P6SM SKC
     FM272000 28007KT P6SM SKC
     FM280300 VRB04KT P6SM SKC=



000
FTUS46 KLOX 270500
TAFSBA
TAF
KSBA 270537Z 2706/2806 VRB03KT P6SM SKC
     FM272000 21007KT P6SM SKC
     FM280200 VRB04KT P6SM SKC=



000
FTUS46 KLOX 270500
TAFPMD
TAF
KPMD 270537Z 2706/2806 13009KT P6SM SKC
     FM270900 VRB03KT P6SM SKC
     FM271800 06008KT P6SM SKC
     FM280300 VRB04KT P6SM SKC=



000
FTUS46 KLOX 270500
TAFWJF
TAF
KWJF 270537Z 2706/2806 05006KT P6SM SKC
     FM270900 VRB04KT P6SM SKC
     FM271800 07008KT P6SM SKC
     FM280300 28006KT P6SM SKC=



000
FTUS46 KLOX 270500
TAFSMX
TAF
KSMX 270537Z 2706/2806 VRB03KT P6SM SKC
     FM272100 30008KT P6SM SKC
     FM280300 VRB03KT P6SM SKC=



000
FTUS46 KLOX 270500
TAFSBP
TAF
KSBP 270537Z 2706/2806 VRB03KT P6SM SKC
     FM272000 29008KT P6SM SKC
     FM280300 VRB03KT P6SM SKC=



000
FTUS46 KLOX 270500
TAFPRB
TAF
KPRB 270537Z 2706/2806 VRB05KT P6SM SKC=



000
FTUS46 KLOX 270500
TAFLAX
TAF
KLAX 270537Z 2706/2812 11008KT P6SM SKC
     FM270800 04005KT P6SM SKC WS015/07025KT
     FM271700 VRB03KT P6SM SKC
     FM272000 28007KT P6SM SKC
     FM280300 VRB04KT P6SM SKC=



000
FTUS46 KLOX 270500
TAFVNY
TAF
KVNY 270537Z 2706/2806 36010KT P6SM SKC
     FM271100 01015G25KT P6SM SKC
     FM272000 36012KT P6SM SKC
     FM280400 36007KT P6SM SKC=



000
FTUS46 KLOX 270500
TAFLGB
TAF
KLGB 270537Z 2706/2806 VRB04KT P6SM SKC
     FM270900 04007KT P6SM SKC
     FM272300 28007KT P6SM SKC
     FM280200 VRB03KT P6SM SKC=



000
FTUS46 KLOX 270500
TAFBUR
TAF
KBUR 270537Z 2706/2806 VRB03KT P6SM SKC WS015/06030KT
     FM270800 04008KT P6SM SKC WS015/07030KT
     FM272200 30006KT P6SM SKC
     FM280300 VRB03KT P6SM SKC=



000
FTUS46 KLOX 270200 AAA
TAFLAX
TAF AMD
KLAX 270229Z 2702/2806 23007KT P6SM SKC
     FM270500 VRB03KT P6SM SKC
     FM270700 04007KT P6SM SKC
     FM271700 VRB03KT P6SM SKC
     FM272000 28007KT P6SM SKC
     FM280300 VRB03KT P6SM SKC=



000
FTUS46 KLOX 270000 AAA
TAFVNY
TAF AMD
KVNY 270007Z 2700/2724 01012KT P6SM SKC
     FM271100 01015G25KT P6SM SKC
     FM272000 01012KT P6SM SKC=



000
FTUS46 KLOX 270000 AAA
TAFPRB
TAF AMD
KPRB 270006Z 2700/2724 33005KT P6SM SKC
     FM270200 09006KT P6SM SKC
     FM270500 VRB03KT P6SM SKC=



000
FTUS46 KLOX 262300 RRA
TAFSBP
TAF
KSBP 262344Z 2700/2724 02007KT P6SM SKC
     FM270300 VRB03KT P6SM SKC
     FM272000 29008KT P6SM SKC=



000
FTUS46 KLOX 262300 RRA
TAFVNY
TAF
KVNY 262344Z 2700/2724 01015G22KT P6SM SKC=



000
FTUS46 KLOX 262300 RRA
TAFSBA
TAF
KSBA 262344Z 2700/2724 26009KT P6SM SKC
     FM270200 VRB03KT P6SM SKC
     FM272000 21007KT P6SM SKC=



000
FTUS46 KLOX 262300 RRA
TAFPMD
TAF
KPMD 262344Z 2700/2724 07007KT P6SM SKC
     FM270400 VRB05KT P6SM SKC
     FM271800 06008KT P6SM SKC=



000
FTUS46 KLOX 262300 RRA
TAFLAX
TAF
KLAX 262344Z 2700/2806 25007KT P6SM SKC
     FM270300 VRB03KT P6SM SKC
     FM270700 04007KT P6SM SKC
     FM271700 VRB03KT P6SM SKC
     FM272000 28007KT P6SM SKC
     FM280300 VRB03KT P6SM SKC=



000
FTUS46 KLOX 262300 RRA
TAFLGB
TAF
KLGB 262344Z 2700/2724 VRB04KT P6SM SKC
     FM270900 04007KT P6SM SKC
     FM272100 28007KT P6SM SKC=



000
FTUS46 KLOX 262300 RRA
TAFWJF
TAF
KWJF 262344Z 2700/2724 04008KT P6SM SKC
     FM270500 VRB05KT P6SM SKC
     FM271800 07008KT P6SM SKC=



000
FTUS46 KLOX 262300 RRA
TAFBUR
TAF
KBUR 262344Z 2700/2724 19007KT P6SM SKC
     FM270300 02010KT P6SM SKC WS015/06030KT
     FM270700 04008KT P6SM SKC WS015/07030KT
     FM272000 VRB05KT P6SM SKC=



000
FTUS46 KLOX 262300 RRA
TAFSMX
TAF
KSMX 262344Z 2700/2724 32008KT P6SM SKC
     FM270300 VRB03KT P6SM SKC
     FM272100 30008KT P6SM SKC=



000
FTUS46 KLOX 262300 RRA
TAFPRB
TAF
KPRB 262344Z 2700/2724 34007G15KT P6SM SKC
     FM270200 09006KT P6SM SKC
     FM270500 VRB03KT P6SM SKC=



000
FTUS46 KLOX 262000 AAA
TAFLAX
TAF AMD
KLAX 262053Z 2621/2724 14005KT P6SM SKC
     FM262200 27006KT P6SM SKC
     FM270300 VRB03KT P6SM SKC
     FM270700 03007KT P6SM SKC
     FM271700 VRB03KT P6SM SKC
     FM272000 27006KT P6SM SKC=



000
FTUS46 KLOX 261700 RRA
TAFVNY
TAF
KVNY 261744Z 2618/2718 36013KT P6SM SKC
     FM262300 01010KT P6SM SKC=



000
FTUS46 KLOX 261700 RRA
TAFBUR
TAF
KBUR 261744Z 2618/2718 00000KT P6SM SKC WS010/04030KT
     FM262000 05009KT P6SM SKC
     FM270800 VRB03KT P6SM SKC=



000
FTUS46 KLOX 261700 RRA
TAFLGB
TAF
KLGB 261744Z 2618/2718 08004KT P6SM SKC
     FM270900 02007KT P6SM SKC=



000
FTUS46 KLOX 261700 RRA
TAFWJF
TAF
KWJF 261744Z 2618/2718 00000KT P6SM SKC
     FM270200 07007KT P6SM SKC
     FM270600 VRB03KT P6SM SKC=



000
FTUS46 KLOX 261700 RRA
TAFPMD
TAF
KPMD 261744Z 2618/2718 00000KT P6SM SKC
     FM270200 08007KT P6SM SKC
     FM270600 VRB03KT P6SM SKC=



000
FTUS46 KLOX 261700 RRA
TAFSBA
TAF
KSBA 261744Z 2618/2718 00000KT P6SM SKC
     FM262100 22007KT P6SM SKC
     FM270200 VRB03KT P6SM SKC=



000
FTUS46 KLOX 261700 RRA
TAFSMX
TAF
KSMX 261744Z 2618/2718 21003KT P6SM SKC
     FM262000 32008KT P6SM SKC
     FM270300 VRB03KT P6SM SKC=



000
FTUS46 KLOX 261700 RRA
TAFPRB
TAF
KPRB 261744Z 2618/2718 00000KT P6SM SKC
     FM262200 09006KT P6SM SKC
     FM270300 VRB03KT P6SM SKC=



000
FTUS46 KLOX 261700 RRA
TAFSBP
TAF
KSBP 261744Z 2618/2718 00000KT P6SM SKC
     FM262100 32006KT P6SM SKC
     FM270300 VRB03KT P6SM SKC=



000
FTUS46 KLOX 261700 RRA
TAFLAX
TAF
KLAX 261744Z 2618/2724 00000KT P6SM SKC
     FM262000 27008KT P6SM SKC
     FM270300 VRB03KT P6SM SKC
     FM270700 03007KT P6SM SKC
     FM271700 VRB03KT P6SM SKC
     FM272000 27006KT P6SM SKC=



000
FTUS46 KLOX 261400 AAA
TAFLAX
TAF AMD
KLAX 261451Z 2615/2718 01003KT P6SM SKC
     FM262000 27010KT P6SM SKC
     FM270300 VRB03KT P6SM SKC
     FM270700 03007KT P6SM SKC
     FM271600 VRB03KT P6SM SKC=



000
FTUS46 KLOX 261100 RRA
TAFLAX
TAF
KLAX 261144Z 2612/2718 VRB03KT P6SM SKC
     FM262000 27010KT P6SM SKC
     FM270300 VRB03KT P6SM SKC
     FM270700 03007KT P6SM SKC
     FM271600 VRB03KT P6SM SKC=



000
FTUS46 KLOX 261100 RRA
TAFSBP
TAF
KSBP 261144Z 2612/2712 06006KT P6SM SKC
     FM261800 34008KT P6SM SKC
     FM270300 VRB03KT P6SM SKC=



000
FTUS46 KLOX 261100 RRA
TAFSMX
TAF
KSMX 261144Z 2612/2712 02006KT P6SM SKC
     FM262000 32008KT P6SM SKC
     FM270300 VRB03KT P6SM SKC=



000
FTUS46 KLOX 261100 RRA
TAFPMD
TAF
KPMD 261144Z 2612/2712 VRB03KT P6SM SKC
     FM261800 05008KT P6SM SKC
     FM270200 11007KT P6SM SKC
     FM270600 VRB03KT P6SM SKC=



000
FTUS46 KLOX 261100 RRA
TAFWJF
TAF
KWJF 261144Z 2612/2712 VRB03KT P6SM SKC
     FM261800 05010KT P6SM SKC
     FM270200 11007KT P6SM SKC
     FM270600 VRB03KT P6SM SKC=



000
FTUS46 KLOX 261100 RRA
TAFPRB
TAF
KPRB 261144Z 2612/2712 VRB03KT P6SM SKC
     FM262200 04008KT P6SM SKC
     FM270300 VRB03KT P6SM SKC=



000
FTUS46 KLOX 261100 RRA
TAFBUR
TAF
KBUR 261144Z 2612/2712 30007KT P6SM SKC WS010/04030KT
     FM262000 05009KT P6SM SKC
     FM270800 VRB03KT P6SM SKC=



000
FTUS46 KLOX 261100 RRA
TAFVNY
TAF
KVNY 261144Z 2612/2712 35010KT P6SM SKC
     FM261600 36015G22KT P6SM SKC
     FM262300 01010KT P6SM SKC=



000
FTUS46 KLOX 261100 RRA
TAFLGB
TAF
KLGB 261144Z 2612/2712 VRB06KT P6SM SKC
     FM270900 02007KT P6SM SKC=



000
FTUS46 KLOX 261100 RRA
TAFSBA
TAF
KSBA 261144Z 2612/2712 VRB03KT P6SM SKC
     FM262100 22007KT P6SM SKC
     FM270200 VRB03KT P6SM SKC=



000
FTUS46 KLOX 260800 AAA
TAFLAX
TAF AMD
KLAX 260851Z 2609/2712 36008KT P6SM SKC
     FM261600 VRB03KT P6SM SKC
     FM262100 27010KT P6SM SKC
     FM270300 VRB03KT P6SM SKC
     FM270800 03007KT P6SM SKC=



000
FTUS46 KLOX 260500
TAFWJF
TAF
KWJF 260535Z 2606/2706 29008KT P6SM SKC
     FM260900 VRB03KT P6SM SKC
     FM261800 05010KT P6SM SKC
     FM270200 11007KT P6SM SKC=



000
FTUS46 KLOX 260500
TAFSBP
TAF
KSBP 260535Z 2606/2706 VRB03KT P6SM SKC
     FM261800 34008KT P6SM SKC
     FM270300 VRB03KT P6SM SKC=



000
FTUS46 KLOX 260500
TAFLGB
TAF
KLGB 260535Z 2606/2706 VRB06KT P6SM SKC=



000
FTUS46 KLOX 260500
TAFSBA
TAF
KSBA 260535Z 2606/2706 VRB03KT P6SM SKC WS010/36030KT
     FM261000 VRB03KT P6SM SKC
     FM262100 22007KT P6SM SKC
     FM270200 VRB03KT P6SM SKC=



000
FTUS46 KLOX 260500
TAFVNY
TAF
KVNY 260535Z 2606/2706 35010KT P6SM SKC
     FM261600 36014G22KT P6SM SKC
     FM262200 01010KT P6SM SKC=



000
FTUS46 KLOX 260500
TAFLAX
TAF
KLAX 260535Z 2606/2712 36012G18KT P6SM SKC
     FM261000 01006KT P6SM SKC
     FM262100 27010KT P6SM SKC
     FM270300 VRB03KT P6SM SKC
     FM270800 03007KT P6SM SKC=



000
FTUS46 KLOX 260500
TAFSMX
TAF
KSMX 260535Z 2606/2706 01006KT P6SM SKC
     FM262000 32008KT P6SM SKC
     FM270300 VRB03KT P6SM SKC=



000
FTUS46 KLOX 260500
TAFBUR
TAF
KBUR 260535Z 2606/2706 34007KT P6SM SKC
     FM261200 VRB03KT P6SM SKC WS010/04030KT
     FM262000 05007KT P6SM SKC
     FM270300 VRB03KT P6SM SKC=



000
FTUS46 KLOX 260500
TAFPMD
TAF
KPMD 260535Z 2606/2706 VRB03KT P6SM SKC
     FM261800 05008KT P6SM SKC
     FM270200 11007KT P6SM SKC=



000
FTUS46 KLOX 260500
TAFPRB
TAF
KPRB 260535Z 2606/2706 VRB03KT P6SM SKC
     FM262200 04008KT P6SM SKC
     FM270300 VRB03KT P6SM SKC=



000
FTUS46 KLOX 260200 AAA
TAFLAX
TAF AMD
KLAX 260250Z 2603/2706 33012KT P6SM SKC
     FM260400 34007KT P6SM SKC
     FM261200 02007KT P6SM SKC
     FM262100 27010KT P6SM SKC
     FM270300 VRB03KT P6SM SKC=



000
FTUS46 KLOX 260200 AAA
TAFSMX
TAF AMD
KSMX 260205Z 2602/2624 03010KT P6SM SKC
     FM261100 VRB03KT P6SM SKC
     FM262000 32008KT P6SM SKC=



000
FTUS46 KLOX 260200 AAA
TAFPRB
TAF AMD
KPRB 260205Z 2602/2624 36008KT P6SM SKC
     FM260600 VRB03KT P6SM SKC
     FM262200 09008KT P6SM SKC=



000
FTUS46 KLOX 260200 AAA
TAFLGB
TAF AMD
KLGB 260205Z 2602/2624 31012KT P6SM SKC
     FM260400 VRB03KT P6SM SKC=



000
FTUS46 KLOX 260200 AAA
TAFVNY
TAF AMD
KVNY 260205Z 2602/2624 01020G30KT P6SM SKC
     FM260400 35010KT P6SM SKC
     FM261600 36014G22KT P6SM SKC
     FM262200 01008KT P6SM SKC=



000
FTUS46 KLOX 260200 AAA
TAFSBA
TAF AMD
KSBA 260205Z 2602/2624 01012G20KT P6SM SKC
     FM260500 VRB03KT P6SM SKC
     FM262200 21006KT P6SM SKC=



000
FTUS46 KLOX 252300
TAFPRB
TAF
KPRB 252324Z 2600/2624 34012KT P6SM SKC
     FM260600 VRB03KT P6SM SKC
     FM262200 09008KT P6SM SKC=



000
FTUS46 KLOX 252300
TAFLGB
TAF
KLGB 252324Z 2600/2624 33012KT P6SM SKC
     FM260400 VRB03KT P6SM SKC=



000
FTUS46 KLOX 252300
TAFSMX
TAF
KSMX 252324Z 2600/2624 33012KT P6SM SKC
     FM260500 02007KT P6SM SKC
     FM261100 VRB03KT P6SM SKC
     FM262000 32008KT P6SM SKC=



000
FTUS46 KLOX 252300
TAFLAX
TAF
KLAX 252324Z 2600/2706 33012G20KT P6SM SKC
     FM260300 34007KT P6SM SKC
     FM261200 02007KT P6SM SKC
     FM262100 27010KT P6SM SKC
     FM270300 VRB03KT P6SM SKC=



000
FTUS46 KLOX 252300
TAFSBP
TAF
KSBP 252324Z 2600/2624 01010KT P6SM SKC
     FM260600 VRB03KT P6SM SKC
     FM261800 34008KT P6SM SKC=



000
FTUS46 KLOX 252300
TAFVNY
TAF
KVNY 252324Z 2600/2624 01015G25KT P6SM SKC
     FM260200 35010KT P6SM SKC
     FM261600 36014G22KT P6SM SKC
     FM262200 01008KT P6SM SKC=



000
FTUS46 KLOX 252300
TAFBUR
TAF
KBUR 252324Z 2600/2624 01008KT P6SM SKC
     FM260600 34006KT P6SM SKC
     FM261200 VRB03KT P6SM SKC WS010/04030KT
     FM262000 VRB05KT P6SM SKC=



000
FTUS46 KLOX 252300
TAFPMD
TAF
KPMD 252324Z 2600/2624 32010KT P6SM SKC
     FM260400 VRB03KT P6SM SKC
     FM262000 05008KT P6SM SKC=



000
FTUS46 KLOX 252300
TAFWJF
TAF
KWJF 252324Z 2600/2624 32010KT P6SM SKC
     FM260400 VRB03KT P6SM SKC
     FM262000 05008KT P6SM SKC=



000
FTUS46 KLOX 252300
TAFSBA
TAF
KSBA 252324Z 2600/2624 01008KT P6SM SKC
     FM260500 VRB03KT P6SM SKC
     FM262200 21006KT P6SM SKC=



000
FTUS46 KLOX 252100 AAB
TAFWJF
TAF AMD
KWJF 252113Z 2521/2618 28014KT P6SM SKC
     FM260200 27008KT P6SM SKC
     FM260900 VRB03KT P6SM SKC=



000
FTUS46 KLOX 252100 AAA
TAFLGB
TAF AMD
KLGB 252112Z 2521/2618 31014KT P6SM SKC
     FM252200 28008KT P6SM SKC
     FM260300 VRB03KT P6SM SKC=



000
FTUS46 KLOX 252100 AAA
TAFPMD
TAF AMD
KPMD 252112Z 2521/2618 29008KT P6SM SKC
     FM260400 27008KT P6SM SKC
     FM260900 VRB03KT P6SM SKC=



000
FTUS46 KLOX 252100 AAA
TAFLAX
TAF AMD
KLAX 252111Z 2521/2624 34014G23KT P6SM FEW100
     FM260400 35008KT P6SM SKC
     FM261600 02006KT P6SM SKC
     FM262000 26006KT P6SM SKC=



000
FTUS46 KLOX 252000 AAA
TAFSMX
TAF AMD
KSMX 252004Z 2520/2618 35008KT P6SM SKC
     FM260300 32010KT P6SM SKC
     FM260800 VRB03KT P6SM SKC=



000
FTUS46 KLOX 252000 AAA
TAFSBP
TAF AMD
KSBP 252003Z 2520/2618 36013G18KT P6SM SKC
     FM260200 32007KT P6SM SKC
     FM260700 VRB03KT P6SM SKC=



000
FTUS46 KLOX 252000 AAA
TAFPRB
TAF AMD
KPRB 252002Z 2520/2618 32012KT P6SM SKC
     FM260100 35010KT P6SM SKC
     FM260600 VRB03KT P6SM SKC=



000
FTUS46 KLOX 251900 AAA
TAFWJF
TAF AMD
KWJF 251907Z 2519/2618 36018G24KT P6SM SKC
     FM252000 32012KT P6SM SKC
     FM260200 27008KT P6SM SKC
     FM260900 VRB03KT P6SM SKC=



000
FTUS46 KLOX 251900 AAA
TAFBUR
TAF AMD
KBUR 251906Z 2519/2618 35016G22KT P6SM SKC
     FM260100 34010KT P6SM SKC
     FM260900 VRB03KT P6SM SKC=



000
FTUS46 KLOX 251900 AAA
TAFSBA
TAF AMD
KSBA 251905Z 2519/2618 33011KT P6SM SKC WS010/36035KT
     FM260100 36008KT P6SM SKC WS010/01030KT
     FM260900 VRB03KT P6SM SKC=



000
FTUS46 KLOX 251700 RRA
TAFPRB
TAF
KPRB 251741Z 2518/2618 34012KT P6SM SKC
     FM251900 34015G22KT P6SM SKC
     FM260100 35010KT P6SM SKC
     FM260600 VRB03KT P6SM SKC=



000
FTUS46 KLOX 251700 RRA
TAFLAX
TAF
KLAX 251741Z 2518/2624 36007G22KT P6SM FEW060 SCT090
     FM252100 31012KT P6SM SKC
     FM260400 35008KT P6SM SKC
     FM261600 02006KT P6SM SKC
     FM262000 26006KT P6SM SKC=



000
FTUS46 KLOX 251700 RRA
TAFSBP
TAF
KSBP 251741Z 2518/2618 34013G18KT P6SM SKC
     FM260200 32007KT P6SM SKC
     FM260700 VRB03KT P6SM SKC=



000
FTUS46 KLOX 251700 RRA
TAFPMD
TAF
KPMD 251741Z 2518/2618 11007KT P6SM SKC
     FM252000 36012KT P6SM SCT150
     FM260400 27008KT P6SM SKC
     FM260900 VRB03KT P6SM SKC=



000
FTUS46 KLOX 251700 RRA
TAFWJF
TAF
KWJF 251741Z 2518/2618 24003KT P6SM SKC
     FM252000 32012KT P6SM SKC
     FM260200 27008KT P6SM SKC
     FM260900 VRB03KT P6SM SKC=



000
FTUS46 KLOX 251700 RRA
TAFLGB
TAF
KLGB 251741Z 2518/2618 32004KT P6SM SKC
     FM252200 28008KT P6SM SKC
     FM260300 VRB03KT P6SM SKC=



000
FTUS46 KLOX 251700 RRA
TAFSBA
TAF
KSBA 251741Z 2518/2618 02017KT P6SM SKC WS010/36035KT
     FM260100 36008KT P6SM SKC WS010/01030KT
     FM260900 VRB03KT P6SM SKC=



000
FTUS46 KLOX 251700 RRA
TAFBUR
TAF
KBUR 251741Z 2518/2618 34010KT P6SM SKC
     FM260900 VRB03KT P6SM SKC=



000
FTUS46 KLOX 251700 RRA
TAFSMX
TAF
KSMX 251741Z 2518/2618 36008KT P6SM SKC
     FM260300 32010KT P6SM SKC
     FM260800 VRB03KT P6SM SKC=



000
FTUS46 KLOX 251700 RRA
TAFVNY
TAF
KVNY 251741Z 2518/2618 01018G28KT P6SM SKC
     FM260100 35010KT P6SM SKC=



000
FTUS46 KLOX 251600 AAB
TAFLAX
TAF AMD
KLAX 251604Z 2516/2618 36007KT P6SM FEW050 SCT080
     FM252100 28012KT P6SM SKC
     FM260400 35009KT P6SM SKC
     FM261600 VRB03KT P6SM SKC=



000
FTUS46 KLOX 251500 AAA
TAFVNY
TAF AMD
KVNY 251500Z 2515/2612 34009KT P6SM FEW070
     FM251600 35015G25KT P6SM SKC
     FM260100 35010KT P6SM SKC=



000
FTUS46 KLOX 251500 CCA
TAFWJF
TAF COR
KWJF 251500Z 2515/2612 25014G22KT P6SM SKC
     FM252000 32012KT P6SM SKC
     FM260200 27008KT P6SM SKC
     FM260900 VRB03KT P6SM SKC=



000
FTUS46 KLOX 251400 AAB
TAFBUR
TAF AMD
KBUR 251459Z 2515/2612 30006KT P6SM SKC WS010/01035KT
     FM251800 34012KT P6SM SKC
     FM260600 VRB03KT P6SM SKC=



000
FTUS46 KLOX 251400 AAA
TAFWJF
TAF AMD
KWJF 251458Z 2515/2612 31010KT P6SM FEW045
     FM252000 32012KT P6SM SKC
     FM260200 27008KT P6SM SKC
     FM260900 VRB03KT P6SM SKC=



000
FTUS46 KLOX 251400 AAA
TAFPMD
TAF AMD
KPMD 251457Z 2515/2612 28013KT P6SM SKC
     FM252000 36012KT P6SM SCT150
     FM260400 27008KT P6SM SKC
     FM260900 VRB03KT P6SM SKC=



000
FTUS46 KLOX 251400 AAA
TAFLAX
TAF AMD
KLAX 251451Z 2515/2618 35015G25KT P6SM FEW070
     FM251600 33012KT P6SM SKC
     FM252100 28012KT P6SM SKC
     FM260400 35009KT P6SM SKC
     FM261600 VRB03KT P6SM SKC=



000
FTUS46 KLOX 251400 AAA
TAFBUR
TAF AMD
KBUR 251408Z 2514/2612 31015G22KT P6SM SKC WS010/01035KT
     FM251800 34012KT P6SM SKC
     FM260600 VRB03KT P6SM SKC=



000
FTUS46 KLOX 251100 RRA
TAFSMX
TAF
KSMX 251159Z 2512/2612 35010KT P6SM SKC
     FM251700 33015G25KT P6SM SKC
     FM260300 32010KT P6SM SKC
     FM260800 01007KT P6SM SKC=



000
FTUS46 KLOX 251100 RRA
TAFLAX
TAF
KLAX 251159Z 2512/2618 36015G25KT P6SM SCT025 SCT050
     FM251600 33008KT P6SM SKC
     FM252100 28012KT P6SM SKC
     FM260400 35009KT P6SM SKC
     FM261600 VRB03KT P6SM SKC=



000
FTUS46 KLOX 251100 RRA
TAFVNY
TAF
KVNY 251159Z 2512/2612 35022G32KT P6SM SKC
     FM251600 35015G25KT P6SM SKC
     FM260100 35010KT P6SM SKC=



000
FTUS46 KLOX 251100 RRA
TAFPRB
TAF
KPRB 251159Z 2512/2612 33010KT P6SM SKC
     FM251900 33015G22KT P6SM SKC
     FM260100 35010KT P6SM SKC
     FM260600 VRB03KT P6SM SKC=



000
FTUS46 KLOX 251100 RRA
TAFSBP
TAF
KSBP 251159Z 2512/2612 33015G20KT P6SM SKC
     FM260200 32007KT P6SM SKC
     FM260700 VRB03KT P6SM SKC=



000
FTUS46 KLOX 251100 RRA
TAFWJF
TAF
KWJF 251159Z 2512/2612 28025G35KT 6SM BLDU SCT005
     FM251500 29015G25KT P6SM SKC
     FM252000 32012KT P6SM SKC
     FM260200 27008KT P6SM SKC
     FM260900 VRB03KT P6SM SKC=



000
FTUS46 KLOX 251100 RRA
TAFLGB
TAF
KLGB 251159Z 2512/2612 32009KT P6SM SKC
     FM260300 VRB03KT P6SM SKC=



000
FTUS46 KLOX 251100 RRA
TAFSBA
TAF
KSBA 251159Z 2512/2612 34012KT P6SM SKC WS010/36035KT
      TEMPO 2512/2515 35015G25KT
     FM251800 32008KT P6SM SKC
     FM260100 36008KT P6SM SKC WS010/01030KT
     FM260900 VRB03KT P6SM SKC=



000
FTUS46 KLOX 251100 RRA
TAFBUR
TAF
KBUR 251159Z 2512/2612 34015G25KT P6SM SKC WS010/01035KT
     FM251600 34012KT P6SM SKC
     FM260600 VRB03KT P6SM SKC=



000
FTUS46 KLOX 251100 RRA
TAFPMD
TAF
KPMD 251159Z 2512/2612 28020G28KT 6SM BLDU SCT005
     FM251500 30015G23KT P6SM SKC
     FM252000 36012KT P6SM SCT150
     FM260400 27008KT P6SM SKC
     FM260900 VRB03KT P6SM SKC=



000
FTUS46 KLOX 251000 AAA
TAFLAX
TAF AMD
KLAX 251028Z 2510/2612 36017G25KT P6SM SCT025 BKN050
     FM251600 33008KT P6SM SCT100
     FM252100 27012KT P6SM SCT150
     FM260400 35010KT P6SM SKC=



000
FTUS46 KLOX 250900 AAB
TAFVNY
TAF AMD
KVNY 250954Z 2510/2606 35018G28KT P6SM SKC
     FM260100 35010KT P6SM SCT150=



000
FTUS46 KLOX 250800 AAA
TAFPMD
TAF AMD
KPMD 250813Z 2508/2606 28025G35KT 2SM BLDU BKN035
     FM251000 28022G32KT P6SM BKN050
     FM251500 33014KT P6SM BKN100
     FM252000 36012KT P6SM SCT150
     FM260100 27008KT P6SM SKC=



000
FTUS46 KLOX 250700 AAA
TAFVNY
TAF AMD
KVNY 250732Z 2508/2606 35006KT P6SM BKN110
     FM250900 35010KT P6SM SCT040 WS010/36035KT
     FM251600 34015G25KT P6SM BKN150
     FM260100 35010KT P6SM SCT150=



000
FTUS46 KLOX 250500 CCA
TAFLAX
TAF COR
KLAX 250546Z 2506/2612 29008KT P6SM BKN015
     FM250900 35015G20KT P6SM BKN080
     FM251600 33008KT P6SM SCT100
     FM252100 27012KT P6SM SCT150
     FM260400 35010KT P6SM SKC=



000
FTUS46 KLOX 250500 RRA
TAFSBA
TAF
KSBA 250543Z 2506/2606 32008KT P6SM BKN060 WS010/35040KT
      TEMPO 2506/2510 35015G25KT
     FM251200 33010KT P6SM SCT100 WS010/36030KT
     FM251800 30010KT P6SM SCT150
     FM260100 35008KT P6SM SKC WS010/01030KT=



000
FTUS46 KLOX 250500 RRA
TAFLGB
TAF
KLGB 250543Z 2506/2606 30006KT P6SM BKN022
     FM251000 33010KT P6SM SCT150
     FM260300 VRB03KT P6SM SKC=



000
FTUS46 KLOX 250500 RRA
TAFLAX
TAF
KLAX 250543Z 2506/2612 25006KT P6SM SCT015
      TEMPO 2506/2509 BKN015
     FM250900 35015G20KT P6SM BKN080
     FM251600 33008KT P6SM SCT100
     FM252100 27012KT P6SM SCT150
     FM260400 35010KT P6SM SKC=



000
FTUS46 KLOX 250500 RRA
TAFSBP
TAF
KSBP 250543Z 2506/2606 34012KT P6SM SCT025 BKN035
     FM250900 33010KT P6SM SCT100
     FM252000 32015G22KT P6SM SCT150
     FM260300 32007KT P6SM SKC=



000
FTUS46 KLOX 250500 RRA
TAFBUR
TAF
KBUR 250543Z 2506/2606 VRB03KT P6SM BKN080
     FM250900 34007KT P6SM SCT050 WS010/36035KT
     FM251700 34015KT P6SM SCT150
     FM260400 34007KT P6SM SCT150=



000
FTUS46 KLOX 250500 RRA
TAFWJF
TAF
KWJF 250543Z 2506/2606 28025G35KT P6SM BKN100
     FM251500 29015KT P6SM BKN100
     FM252000 33012KT P6SM SCT150
     FM260100 27008KT P6SM SKC=



000
FTUS46 KLOX 250500 RRA
TAFPMD
TAF
KPMD 250543Z 2506/2606 28022G32KT P6SM BKN100
     FM251500 33014KT P6SM BKN100
     FM252000 36012KT P6SM SCT150
     FM260100 27008KT P6SM SKC=



000
FTUS46 KLOX 250500 RRA
TAFVNY
TAF
KVNY 250543Z 2506/2606 VRB03KT P6SM BKN080
     FM250900 35010KT P6SM SCT040 WS010/36035KT
     FM251600 34015G25KT P6SM BKN150
     FM260100 35010KT P6SM SCT150=



000
FTUS46 KLOX 250500 RRA
TAFSMX
TAF
KSMX 250543Z 2506/2606 30012KT P6SM VCSH BKN025 BKN040
     FM250900 32010KT P6SM SCT100
     FM252000 33015G25KT P6SM SCT150
     FM260300 32010KT P6SM SKC=



000
FTUS46 KLOX 250500 RRA
TAFPRB
TAF
KPRB 250543Z 2506/2606 31015G25KT P6SM BKN050
     FM250900 33010KT P6SM SCT100
     FM252000 33015G22KT P6SM SCT150
     FM260200 36007KT P6SM SKC=



000
FTUS46 KLOX 250400 AAB
TAFLAX
TAF AMD
KLAX 250432Z 2505/2606 26007KT P6SM BKN008
     FM250800 34014G22KT P6SM BKN080
     FM251500 33008KT P6SM SCT100
     FM252100 27012KT P6SM SCT150
     FM260300 30008KT P6SM SCT150=



000
FTUS46 KLOX 250400 AAC
TAFSBP
TAF AMD
KSBP 250412Z 2504/2524 30010G20KT P6SM BKN030 BKN150
     FM250500 30014G22KT P6SM SCT025 BKN050
     FM250800 33010KT P6SM SCT100
     FM252000 33014G22KT P6SM SCT150=



000
FTUS46 KLOX 250400 AAB
TAFPMD
TAF AMD
KPMD 250412Z 2504/2524 23018G26KT P6SM BKN150
     FM250500 28022G32KT P6SM BKN100
     FM251500 33014KT P6SM BKN100
     FM252000 36012KT P6SM SCT150=



000
FTUS46 KLOX 250400 AAA
TAFWJF
TAF AMD
KWJF 250412Z 2504/2524 24018G28KT P6SM BKN150
     FM250500 28025G35KT P6SM BKN100
     FM251500 33016KT P6SM BKN100
     FM252000 36012KT P6SM SCT150=



000
FTUS46 KLOX 250400 AAB
TAFSMX
TAF AMD
KSMX 250412Z 2504/2524 30012KT P6SM -SHRA BKN015 BKN150
     FM250500 30014G22KT P6SM BKN050
     FM250900 33010KT P6SM SCT100
     FM252000 33015G25KT P6SM SCT150=



000
FTUS46 KLOX 250200 AAA
TAFPMD
TAF AMD
KPMD 250251Z 2503/2524 25018G26KT P6SM BKN150
     FM250500 28022G32KT P6SM BKN100
     FM251500 33014KT P6SM BKN100
     FM252000 36012KT P6SM SCT150=



000
FTUS46 KLOX 250200 AAC
TAFPRB
TAF AMD
KPRB 250251Z 2503/2524 30007KT P6SM SCT035 BKN150
     FM250400 31015G25KT P6SM BKN050
     FM250800 33010KT P6SM SCT100
     FM252000 33014KT P6SM SCT150=



000
FTUS46 KLOX 250200 AAA
TAFLAX
TAF AMD
KLAX 250250Z 2503/2606 23007KT P6SM BKN150
     FM250500 29012KT P6SM BKN080
     FM250800 34014G22KT P6SM BKN080
     FM251500 33008KT P6SM SCT100
     FM252100 27012KT P6SM SCT150
     FM260300 30008KT P6SM SCT150=



000
FTUS46 KLOX 250100 AAA
TAFSMX
TAF AMD
KSMX 250102Z 2501/2524 30010KT P6SM BKN025 BKN150
     FM250300 30014G22KT P6SM BKN050
     FM250900 33010KT P6SM SCT100
     FM252000 33015G25KT P6SM SCT150=



000
FTUS46 KLOX 250100 AAB
TAFSBP
TAF AMD
KSBP 250102Z 2501/2524 30010KT P6SM BKN025 BKN150
     FM250300 30014G22KT P6SM SCT025 BKN050
     FM250800 33010KT P6SM SCT100
     FM252000 33014G22KT P6SM SCT150=



000
FTUS46 KLOX 250100 AAB
TAFPRB
TAF AMD
KPRB 250102Z 2501/2524 30007KT P6SM BKN030 BKN050
     FM250300 31015G25KT P6SM BKN050
     FM250800 33010KT P6SM SCT100
     FM252000 33014KT P6SM SCT150=



000
FTUS46 KLOX 250000 AAA
TAFSBP
TAF AMD
KSBP 250007Z 2500/2524 30010KT P6SM BKN015 BKN150
     FM250200 30014G22KT P6SM SCT025 BKN050
     FM250800 33010KT P6SM SCT100
     FM252000 33014G22KT P6SM SCT150=



000
FTUS46 KLOX 250000 AAA
TAFPRB
TAF AMD
KPRB 250007Z 2500/2524 30007KT P6SM BKN010 BKN150
     FM250200 31015G25KT P6SM BKN050
     FM250800 33010KT P6SM SCT100
     FM252000 33014KT P6SM SCT150=



000
FTUS46 KLOX 250000 CCA
TAFSMX
TAF COR
KSMX 250006Z 2500/2524 30010KT P6SM BKN012 BKN150
     FM250300 30014G22KT P6SM BKN050
     FM250900 33010KT P6SM SCT100
     FM252000 33015G25KT P6SM SCT150=



000
FTUS46 KLOX 242300 CCA
TAFPRB
TAF COR
KPRB 242342Z 2500/2524 30007KT P6SM BKN008 BKN150
     FM250200 31015G25KT P6SM BKN050
     FM250800 33010KT P6SM SCT100
     FM252000 33014KT P6SM SCT150=



000
FTUS46 KLOX 242300 CCA
TAFSBP
TAF COR
KSBP 242342Z 2500/2524 30010KT P6SM BKN025 BKN150
     FM250200 30014G22KT P6SM SCT025 BKN050
     FM250800 33010KT P6SM SCT100
     FM252000 33014G22KT P6SM SCT150=



000
FTUS46 KLOX 242300
TAFLGB
TAF
KLGB 242326Z 2500/2524 19006KT P6SM BKN150
     FM250400 29008KT P6SM BKN080
     FM251100 34010KT P6SM BKN100
     FM252000 30008KT P6SM SCT150=



000
FTUS46 KLOX 242300
TAFSMX
TAF
KSMX 242326Z 2500/2524 30010KT P6SM BKN150
     FM250300 30014G22KT P6SM BKN050
     FM250900 33010KT P6SM SCT100
     FM252000 33015G25KT P6SM SCT150=



000
FTUS46 KLOX 242300
TAFPMD
TAF
KPMD 242326Z 2500/2524 25014KT P6SM BKN150
     FM250500 28022G32KT P6SM BKN100
     FM251500 33014KT P6SM BKN100
     FM252000 36012KT P6SM SCT150=



000
FTUS46 KLOX 242300
TAFSBP
TAF
KSBP 242326Z 2500/2524 30010KT P6SM BKN150
     FM250200 30014G22KT P6SM BKN050
     FM250800 33010KT P6SM SCT100
     FM252000 33014G22KT P6SM SCT150=



000
FTUS46 KLOX 242300
TAFVNY
TAF
KVNY 242326Z 2500/2524 19007KT P6SM BKN150
     FM250300 VRB03KT P6SM BKN080
     FM250900 34010KT P6SM SCT040 WS010/36035KT
     FM251500 34015G25KT P6SM BKN150
     FM252300 35010KT P6SM SCT150=



000
FTUS46 KLOX 242300
TAFPRB
TAF
KPRB 242326Z 2500/2524 VRB03KT P6SM BKN150
     FM250200 31015G25KT P6SM BKN050
     FM250800 33010KT P6SM SCT100
     FM252000 33014KT P6SM SCT150=



000
FTUS46 KLOX 242300
TAFWJF
TAF
KWJF 242326Z 2500/2524 24015KT P6SM BKN150
     FM250500 28025G35KT P6SM BKN100
     FM251500 33016KT P6SM BKN100
     FM252000 36012KT P6SM SCT150=



000
FTUS46 KLOX 242300
TAFBUR
TAF
KBUR 242326Z 2500/2524 19007KT P6SM BKN150
     FM250300 VRB03KT P6SM BKN080
     FM250900 35007KT P6SM BKN060 WS010/36035KT
     FM251700 34010KT P6SM SCT150=



000
FTUS46 KLOX 242300
TAFLAX
TAF
KLAX 242326Z 2500/2606 25010KT P6SM BKN150
     FM250400 29012KT P6SM BKN080
     FM250800 34014G22KT P6SM BKN080
     FM251500 33008KT P6SM SCT100
     FM252100 27012KT P6SM SCT150
     FM260300 30008KT P6SM SCT150=



000
FTUS46 KLOX 242300
TAFSBA
TAF
KSBA 242326Z 2500/2524 26007KT P6SM BKN150
     FM250400 32007KT P6SM BKN060 WS010/35040KT
     FM251200 33010KT P6SM SCT100 WS010/36030KT
     FM251800 30010KT P6SM SCT150=



000
FTUS46 KLOX 242200 AAD
TAFPRB
TAF AMD
KPRB 242225Z 2422/2518 21004KT P6SM SCT007
     FM250100 31017G25KT P6SM BKN040
     FM250800 31010KT P6SM SCT200=



000
FTUS46 KLOX 242200 AAC
TAFPRB
TAF AMD
KPRB 242211Z 2422/2518 27005KT P6SM BKN005
     FM250100 31017G25KT P6SM BKN040
     FM250800 31010KT P6SM SCT200=



000
FTUS46 KLOX 242100 AAA
TAFSMX
TAF AMD
KSMX 242136Z 2422/2518 30013KT P6SM BKN011
     FM242230 30015G20KT P6SM SCT011
     FM250100 30015G20KT P6SM BKN030
     FM250800 30010KT P6SM SCT200=



000
FTUS46 KLOX 242100 AAB
TAFPRB
TAF AMD
KPRB 242122Z 2421/2518 32012KT 5SM BR BKN004
     FM242200 32015KT P6SM SKC
     FM250100 31017G25KT P6SM BKN040
     FM250800 31010KT P6SM SCT200=



000
FTUS46 KLOX 242000 AAA
TAFLAX
TAF AMD
KLAX 242054Z 2421/2524 00000KT P6SM FEW140 SCT180 BKN250
     FM242300 23007KT P6SM BKN250
     FM250400 29012KT P6SM SCT150
     FM251000 35009KT P6SM SCT025
     FM251700 31008KT P6SM SKC
     FM252100 28010KT P6SM SKC=



000
FTUS46 KLOX 241900 AAA
TAFPRB
TAF AMD
KPRB 241905Z 2419/2518 16005KT 2SM BR OVC002
     FM241930 VRB03KT P6SM BKN120
     FM242100 29008KT P6SM BKN120
     FM250100 31017G25KT P6SM BKN040
     FM250800 31010KT P6SM SCT200=



000
FTUS46 KLOX 241800 CCA
TAFVNY
TAF COR
KVNY 241821Z 2418/2518 00000KT P6SM SKC
     FM242200 14007KT P6SM SCT150
     FM250300 VRB03KT P6SM SCT040 SCT120
     FM250900 34010KT P6SM SCT040 WS005/36035KT
     FM251500 34015G22KT P6SM SKC=



000
FTUS46 KLOX 241800 CCA
TAFBUR
TAF COR
KBUR 241820Z 2418/2518 00000KT P6SM SKC
     FM242200 17007KT P6SM SCT150
     FM250300 VRB03KT P6SM SCT040 SCT120
     FM250900 35006KT P6SM SCT040 WS005/36035KT
     FM251500 34010KT P6SM SKC=



000
FTUS46 KLOX 241700 CCA
TAFPRB
TAF COR
KPRB 241738Z 2418/2518 18004KT 1/4SM FG VV002
     FM241930 VRB03KT P6SM BKN120
     FM242100 29008KT P6SM BKN120
     FM250100 31017G25KT P6SM BKN040
     FM250800 31010KT P6SM SCT200=



000
FTUS46 KLOX 241700
TAFWJF
TAF
KWJF 241737Z 2418/2518 00000KT P6SM SKC
     FM242200 26015KT P6SM SCT150
     FM250500 28025G35KT P6SM SCT150
     FM251500 35010KT P6SM SKC=



000
FTUS46 KLOX 241700
TAFPMD
TAF
KPMD 241737Z 2418/2518 00000KT P6SM SKC
     FM242200 26012KT P6SM SCT150
     FM250500 28022G32KT P6SM SCT150
     FM251500 35010KT P6SM SKC=



000
FTUS46 KLOX 241700
TAFPRB
TAF
KPRB 241737Z 2418/2518 18004KT 1/4SM FG VV002
     FM242100 29008KT P6SM BKN120
     FM250100 31017G25KT P6SM BKN040
     FM250800 31010KT P6SM SCT200=



000
FTUS46 KLOX 241700
TAFSMX
TAF
KSMX 241737Z 2418/2518 00000KT P6SM SKC
     FM242000 30010KT P6SM SCT150
     FM250100 30015G20KT P6SM BKN030
     FM250800 30010KT P6SM SCT200=



000
FTUS46 KLOX 241700
TAFSBA
TAF
KSBA 241737Z 2418/2518 00000KT P6SM SKC
     FM242200 26007KT P6SM SCT150
     FM250300 32010KT P6SM SCT050 SCT120 WS010/34030KT=



000
FTUS46 KLOX 241700
TAFVNY
TAF
KVNY 241737Z 2418/2518 00000KT P6SM SKC
     FM242200 14007KT P6SM SCT150
     FM250300 VRB03KT P6SM SCT040 SCT120
     FM250900 34010KT P6SM SCT040
     FM251500 34015G22KT P6SM SKC=



000
FTUS46 KLOX 241700
TAFSBP
TAF
KSBP 241737Z 2418/2518 00000KT P6SM SKC
     FM242000 30010KT P6SM SCT150
     FM250100 30015G20KT P6SM BKN030
     FM250800 30010KT P6SM SCT200=



000
FTUS46 KLOX 241700
TAFBUR
TAF
KBUR 241737Z 2418/2518 00000KT P6SM SKC
     FM242200 17007KT P6SM SCT150
     FM250300 VRB03KT P6SM SCT040 SCT120
     FM250900 35006KT P6SM SCT040
     FM251500 34010KT P6SM SKC=



000
FTUS46 KLOX 241700
TAFLGB
TAF
KLGB 241737Z 2418/2518 00000KT P6SM SKC
     FM242000 19006KT P6SM SCT150
     FM250500 28008KT P6SM SCT025
     FM251100 35010KT P6SM SKC=



000
FTUS46 KLOX 241700
TAFLAX
TAF
KLAX 241737Z 2418/2524 08006KT P6SM SCT180 BKN250
     FM242100 26008KT P6SM SCT150
     FM250400 29012KT P6SM SCT150
     FM251000 35009KT P6SM SCT025
     FM251700 31008KT P6SM SKC
     FM252100 28010KT P6SM SKC=



000
FTUS46 KLOX 241600 AAA
TAFPRB
TAF AMD
KPRB 241632Z 2417/2512 VRB03KT 1/4SM FG VV001
     FM241800 VRB03KT P6SM SCT200
     FM242100 29008KT P6SM BKN120
     FM250100 31017G25KT P6SM BKN040
     FM250800 31010KT P6SM SCT200=



000
FTUS46 KLOX 241500 AAA
TAFLAX
TAF AMD
KLAX 241522Z 2415/2518 VRB04KT P6SM FEW250
     FM242100 26008KT P6SM SCT150
     FM250400 29012KT P6SM SCT150
     FM250900 35009KT P6SM SCT025
     FM251700 VRB03KT P6SM SKC=



000
FTUS46 KLOX 241100 RRA
TAFVNY
TAF
KVNY 241143Z 2412/2512 36008KT P6SM SKC
     FM241400 VRB03KT P6SM SKC
     FM242200 14007KT P6SM SCT150
     FM250300 VRB03KT P6SM SCT040 SCT120
     FM250900 34010KT P6SM SCT040=



000
FTUS46 KLOX 241100 RRA
TAFSMX
TAF
KSMX 241143Z 2412/2512 VRB03KT P6SM SKC
     FM242000 30010KT P6SM SCT150
     FM250100 30015G20KT P6SM BKN030
     FM250800 30012KT P6SM SCT200=



000
FTUS46 KLOX 241100 RRA
TAFPMD
TAF
KPMD 241143Z 2412/2512 VRB03KT P6SM SKC
     FM242200 26012KT P6SM SCT150
     FM250500 28022G32KT P6SM SCT150=



000
FTUS46 KLOX 241100 RRA
TAFLGB
TAF
KLGB 241143Z 2412/2512 VRB03KT P6SM SKC
     FM242000 19006KT P6SM SCT150
     FM250500 28008KT P6SM SCT025=



000
FTUS46 KLOX 241100 RRA
TAFBUR
TAF
KBUR 241143Z 2412/2512 VRB03KT P6SM SKC
     FM242200 17007KT P6SM SCT150
     FM250300 VRB03KT P6SM SCT040 SCT120
     FM250900 35006KT P6SM SCT040=



000
FTUS46 KLOX 241100 RRA
TAFSBP
TAF
KSBP 241143Z 2412/2512 VRB03KT P6SM SKC
     FM242000 30010KT P6SM SCT150
     FM250100 30015G20KT P6SM BKN030
     FM250800 30012KT P6SM SCT200=



000
FTUS46 KLOX 241100 RRA
TAFLAX
TAF
KLAX 241143Z 2412/2518 VRB03KT P6SM SKC
     FM242100 26008KT P6SM SCT150
     FM250400 29012KT P6SM SCT150
     FM250900 35009KT P6SM SCT025
     FM251700 VRB03KT P6SM SKC=



000
FTUS46 KLOX 241100 RRA
TAFWJF
TAF
KWJF 241143Z 2412/2512 VRB03KT P6SM SKC
     FM242200 26015KT P6SM SCT150
     FM250500 28025G35KT P6SM SCT150=



000
FTUS46 KLOX 241100 RRA
TAFPRB
TAF
KPRB 241143Z 2412/2512 VRB03KT 1/4SM FG VV001
     FM241600 VRB03KT 2SM BR BKN002
     FM241800 VRB03KT P6SM SCT200
     FM242100 29008KT P6SM BKN120
     FM250100 31017G25KT P6SM BKN040
     FM250800 31010KT P6SM SCT200=



000
FTUS46 KLOX 241100 RRA
TAFSBA
TAF
KSBA 241143Z 2412/2512 VRB03KT P6SM SKC
     FM242200 26007KT P6SM SCT150
     FM250300 32010KT P6SM SCT050 SCT120 WS010/34030KT=



    US Dept of Commerce
    National Oceanic and Atmospheric Administration
    National Weather Service
    1325 East West Highway
    Silver Spring, MD 20910
    Page Author: NWS Internet Services Team
Disclaimer
Information Quality
Credits
Glossary
Privacy Policy
Freedom of Information Act (FOIA)
About Us
Career Opportunities